sensor_id;sensor_type;location;lat;lon;timestamp;P1;durP1;ratioP1;P2;durP2;ratioP2
23068;SDS011;11702;50.856;4.348;2023-05-07T19:48:00;10.20;;;8.02;;
23068;SDS011;11702;50.856;4.348;2023-05-07T19:50:26;11.38;;;8.25;;
23068;SDS011;11702;50.856;4.348;2023-05-07T19:52:52;12.90;;;9.55;;
23068;SDS011;11702;50.856;4.348;2023-05-07T19:55:17;12.68;;;10.00;;
23068;SDS011;11702;50.856;4.348;2023-05-07T19:57:43;11.60;;;9.93;;
23068;SDS011;11702;50.856;4.348;2023-05-07T20:00:13;15.80;;;10.23;;
23068;SDS011;11702;50.856;4.348;2023-05-07T20:02:42;14.25;;;10.63;;
23068;SDS011;11702;50.856;4.348;2023-05-07T20:05:08;12.40;;;10.38;;
23068;SDS011;11702;50.856;4.348;2023-05-07T20:07:35;12.63;;;11.30;;
23068;SDS011;11702;50.856;4.348;2023-05-07T20:10:01;13.13;;;10.98;;
23068;SDS011;11702;50.856;4.348;2023-05-07T20:12:26;13.65;;;10.40;;
23068;SDS011;11702;50.856;4.348;2023-05-07T20:14:52;11.73;;;10.18;;
23068;SDS011;11702;50.856;4.348;2023-05-07T20:17:18;12.45;;;11.18;;
23068;SDS011;11702;50.856;4.348;2023-05-07T20:19:44;12.05;;;10.57;;
23068;SDS011;11702;50.856;4.348;2023-05-07T20:22:09;11.85;;;10.40;;
23068;SDS011;11702;50.856;4.348;2023-05-07T20:24:36;13.75;;;10.20;;
23068;SDS011;11702;50.856;4.348;2023-05-07T20:27:05;14.07;;;10.20;;
23068;SDS011;11702;50.856;4.348;2023-05-07T20:29:31;14.73;;;10.85;;
23068;SDS011;11702;50.856;4.348;2023-05-07T20:31:57;11.82;;;10.63;;
23068;SDS011;11702;50.856;4.348;2023-05-07T20:34:23;14.35;;;11.75;;
23068;SDS011;11702;50.856;4.348;2023-05-07T20:36:49;18.08;;;13.40;;
23068;SDS011;11702;50.856;4.348;2023-05-07T20:39:14;16.08;;;11.93;;
23068;SDS011;11702;50.856;4.348;2023-05-07T20:41:41;15.02;;;11.57;;
23068;SDS011;11702;50.856;4.348;2023-05-07T20:44:08;18.67;;;12.30;;
23068;SDS011;11702;50.856;4.348;2023-05-07T20:46:34;15.35;;;11.77;;
23068;SDS011;11702;50.856;4.348;2023-05-07T20:49:01;16.90;;;12.15;;
23068;SDS011;11702;50.856;4.348;2023-05-07T20:51:27;17.45;;;11.00;;
23068;SDS011;11702;50.856;4.348;2023-05-07T20:53:54;14.57;;;10.95;;
23068;SDS011;11702;50.856;4.348;2023-05-07T20:56:20;15.60;;;11.43;;
23068;SDS011;11702;50.856;4.348;2023-05-07T20:58:46;14.40;;;11.90;;
23068;SDS011;11702;50.856;4.348;2023-05-07T21:01:12;17.40;;;12.00;;
23068;SDS011;11702;50.856;4.348;2023-05-07T21:03:38;16.33;;;11.55;;
23068;SDS011;11702;50.856;4.348;2023-05-07T21:06:04;16.52;;;11.25;;
23068;SDS011;11702;50.856;4.348;2023-05-07T21:08:30;14.35;;;11.60;;
23068;SDS011;11702;50.856;4.348;2023-05-07T21:10:56;13.98;;;10.93;;
23068;SDS011;11702;50.856;4.348;2023-05-07T21:13:22;14.13;;;11.57;;
23068;SDS011;11702;50.856;4.348;2023-05-07T21:15:47;14.30;;;11.57;;
23068;SDS011;11702;50.856;4.348;2023-05-07T21:18:13;12.82;;;10.30;;
23068;SDS011;11702;50.856;4.348;2023-05-07T21:20:39;12.82;;;9.77;;
23068;SDS011;11702;50.856;4.348;2023-05-07T21:23:05;13.73;;;10.80;;
23068;SDS011;11702;50.856;4.348;2023-05-07T21:25:31;15.68;;;11.32;;
23068;SDS011;11702;50.856;4.348;2023-05-07T21:27:57;16.52;;;11.48;;
23068;SDS011;11702;50.856;4.348;2023-05-07T21:30:23;11.77;;;10.20;;
23068;SDS011;11702;50.856;4.348;2023-05-07T21:32:48;14.30;;;11.60;;
23068;SDS011;11702;50.856;4.348;2023-05-07T21:35:14;12.63;;;10.60;;
23068;SDS011;11702;50.856;4.348;2023-05-07T21:37:40;11.30;;;9.00;;
23068;SDS011;11702;50.856;4.348;2023-05-07T21:40:06;11.10;;;9.07;;
23068;SDS011;11702;50.856;4.348;2023-05-07T21:42:32;11.43;;;8.50;;
23068;SDS011;11702;50.856;4.348;2023-05-07T21:44:58;12.55;;;8.40;;
23068;SDS011;11702;50.856;4.348;2023-05-07T21:47:24;9.57;;;7.68;;
23068;SDS011;11702;50.856;4.348;2023-05-07T21:49:49;11.27;;;8.52;;
23068;SDS011;11702;50.856;4.348;2023-05-07T21:52:15;12.05;;;9.65;;
23068;SDS011;11702;50.856;4.348;2023-05-07T21:54:41;11.32;;;8.98;;
23068;SDS011;11702;50.856;4.348;2023-05-07T21:57:07;13.18;;;10.80;;
23068;SDS011;11702;50.856;4.348;2023-05-07T21:59:33;12.45;;;9.30;;
23068;SDS011;11702;50.856;4.348;2023-05-07T22:01:59;14.07;;;10.20;;
23068;SDS011;11702;50.856;4.348;2023-05-07T22:04:25;10.10;;;8.85;;
